sensor_id;sensor_type;location;lat;lon;timestamp;pressure;altitude;pressure_sealevel;temperature;humidity
37764;BME280;23602;51.084;7.090;2023-06-10T00:00:56;99886.84;;;18.91;100.00
37764;BME280;23602;51.084;7.090;2023-06-10T00:03:32;99886.00;;;18.90;100.00
37764;BME280;23602;51.084;7.090;2023-06-10T00:05:57;99883.00;;;18.92;100.00
37764;BME280;23602;51.084;7.090;2023-06-10T00:08:23;99879.22;;;18.93;100.00
37764;BME280;23602;51.084;7.090;2023-06-10T00:10:53;99878.66;;;18.86;100.00
37764;BME280;23602;51.084;7.090;2023-06-10T00:13:18;99884.09;;;18.81;100.00
37764;BME280;23602;51.084;7.090;2023-06-10T00:15:44;99874.81;;;18.72;100.00
37764;BME280;23602;51.084;7.090;2023-06-10T00:18:09;99876.44;;;18.73;100.00
37764;BME280;23602;51.084;7.090;2023-06-10T00:20:35;99877.00;;;18.75;100.00
37764;BME280;23602;51.084;7.090;2023-06-10T00:23:02;99877.00;;;18.75;100.00
37764;BME280;23602;51.084;7.090;2023-06-10T00:25:28;99881.63;;;18.74;100.00
37764;BME280;23602;51.084;7.090;2023-06-10T00:27:53;99878.88;;;18.69;100.00
37764;BME280;23602;51.084;7.090;2023-06-10T00:30:19;99873.19;;;18.71;100.00
37764;BME280;23602;51.084;7.090;2023-06-10T00:32:45;99875.91;;;18.71;100.00
37764;BME280;23602;51.084;7.090;2023-06-10T00:35:10;99873.44;;;18.69;100.00
37764;BME280;23602;51.084;7.090;2023-06-10T00:37:36;99871.53;;;18.65;100.00
37764;BME280;23602;51.084;7.090;2023-06-10T00:40:02;99885.97;;;18.65;100.00
37764;BME280;23602;51.084;7.090;2023-06-10T00:42:27;99883.47;;;18.59;100.00
37764;BME280;23602;51.084;7.090;2023-06-10T00:44:54;99875.88;;;18.56;100.00
37764;BME280;23602;51.084;7.090;2023-06-10T00:47:19;99873.16;;;18.56;100.00
37764;BME280;23602;51.084;7.090;2023-06-10T00:49:45;99884.03;;;18.51;100.00
37764;BME280;23602;51.084;7.090;2023-06-10T00:52:11;99880.19;;;18.47;100.00
37764;BME280;23602;51.084;7.090;2023-06-10T00:54:37;99886.16;;;18.49;100.00
37764;BME280;23602;51.084;7.090;2023-06-10T00:57:02;99890.00;;;18.48;100.00
37764;BME280;23602;51.084;7.090;2023-06-10T00:59:28;99883.41;;;18.44;100.00
37764;BME280;23602;51.084;7.090;2023-06-10T01:01:53;99886.47;;;18.57;100.00
37764;BME280;23602;51.084;7.090;2023-06-10T01:04:21;99888.38;;;18.52;100.00
37764;BME280;23602;51.084;7.090;2023-06-10T01:09:38;99888.84;;;18.44;100.00
37764;BME280;23602;51.084;7.090;2023-06-10T01:12:20;99886.69;;;18.41;100.00
37764;BME280;23602;51.084;7.090;2023-06-10T01:14:49;99887.22;;;18.38;100.00
37764;BME280;23602;51.084;7.090;2023-06-10T01:17:16;99891.00;;;18.37;100.00
37764;BME280;23602;51.084;7.090;2023-06-10T01:19:43;99881.75;;;18.38;100.00
37764;BME280;23602;51.084;7.090;2023-06-10T01:22:09;99885.56;;;18.37;100.00
37764;BME280;23602;51.084;7.090;2023-06-10T01:24:35;99882.31;;;18.40;100.00
37764;BME280;23602;51.084;7.090;2023-06-10T01:27:01;99880.66;;;18.33;100.00
37764;BME280;23602;51.084;7.090;2023-06-10T01:29:33;99883.91;;;18.30;100.00
37764;BME280;23602;51.084;7.090;2023-06-10T01:32:07;99879.00;;;18.27;100.00
37764;BME280;23602;51.084;7.090;2023-06-10T01:34:35;99881.97;;;18.26;100.00
37764;BME280;23602;51.084;7.090;2023-06-10T01:37:02;99879.00;;;18.22;100.00
37764;BME280;23602;51.084;7.090;2023-06-10T01:39:28;99877.34;;;18.21;100.00
37764;BME280;23602;51.084;7.090;2023-06-10T01:41:54;99881.69;;;18.17;100.00
37764;BME280;23602;51.084;7.090;2023-06-10T01:44:21;99884.38;;;18.12;100.00
37764;BME280;23602;51.084;7.090;2023-06-10T01:46:47;99883.00;;;18.10;100.00
37764;BME280;23602;51.084;7.090;2023-06-10T01:49:12;99875.06;;;18.03;100.00
37764;BME280;23602;51.084;7.090;2023-06-10T01:51:38;99878.63;;;18.04;100.00
37764;BME280;23602;51.084;7.090;2023-06-10T01:54:04;99878.59;;;17.99;100.00
37764;BME280;23602;51.084;7.090;2023-06-10T01:56:29;99869.94;;;18.07;100.00
37764;BME280;23602;51.084;7.090;2023-06-10T01:58:54;99878.94;;;18.12;100.00
37764;BME280;23602;51.084;7.090;2023-06-10T02:01:28;99878.38;;;18.10;100.00
37764;BME280;23602;51.084;7.090;2023-06-10T02:03:54;99875.63;;;18.05;100.00
37764;BME280;23602;51.084;7.090;2023-06-10T02:06:20;99881.88;;;18.01;100.00
37764;BME280;23602;51.084;7.090;2023-06-10T02:08:46;99879.94;;;17.96;100.00
37764;BME280;23602;51.084;7.090;2023-06-10T02:11:14;99885.63;;;17.90;100.00
37764;BME280;23602;51.084;7.090;2023-06-10T02:13:39;99882.94;;;17.95;100.00
37764;BME280;23602;51.084;7.090;2023-06-10T02:16:05;99882.13;;;17.94;100.00
37764;BME280;23602;51.084;7.090;2023-06-10T02:18:31;99884.81;;;17.89;100.00
37764;BME280;23602;51.084;7.090;2023-06-10T02:20:56;99888.34;;;17.90;100.00
37764;BME280;23602;51.084;7.090;2023-06-10T02:23:22;99886.16;;;17.87;100.00
37764;BME280;23602;51.084;7.090;2023-06-10T02:25:47;99896.19;;;17.86;100.00
37764;BME280;23602;51.084;7.090;2023-06-10T02:28:13;99897.53;;;17.84;100.00
37764;BME280;23602;51.084;7.090;2023-06-10T02:30:41;99894.28;;;17.82;100.00
37764;BME280;23602;51.084;7.090;2023-06-10T02:33:07;99903.19;;;17.77;100.00
37764;BME280;23602;51.084;7.090;2023-06-10T02:35:35;99899.91;;;17.70;100.00
37764;BME280;23602;51.084;7.090;2023-06-10T02:38:00;99900.41;;;17.67;100.00
37764;BME280;23602;51.084;7.090;2023-06-10T02:40:25;99897.69;;;17.67;100.00
37764;BME280;23602;51.084;7.090;2023-06-10T02:42:51;99896.13;;;17.76;100.00
37764;BME280;23602;51.084;7.090;2023-06-10T02:45:16;99898.00;;;17.71;100.00
37764;BME280;23602;51.084;7.090;2023-06-10T02:47:42;99896.06;;;17.66;100.00
37764;BME280;23602;51.084;7.090;2023-06-10T02:50:07;99904.78;;;17.68;100.00
37764;BME280;23602;51.084;7.090;2023-06-10T02:52:33;99903.13;;;17.67;100.00
37764;BME280;23602;51.084;7.090;2023-06-10T02:54:58;99904.19;;;17.61;100.00
37764;BME280;23602;51.084;7.090;2023-06-10T02:57:23;99891.69;;;17.60;100.00
37764;BME280;23602;51.084;7.090;2023-06-10T02:59:49;99899.00;;;17.59;100.00
37764;BME280;23602;51.084;7.090;2023-06-10T03:02:14;99900.66;;;17.60;100.00
37764;BME280;23602;51.084;7.090;2023-06-10T03:04:40;99900.09;;;17.58;100.00
37764;BME280;23602;51.084;7.090;2023-06-10T03:07:06;99893.03;;;17.57;100.00
37764;BME280;23602;51.084;7.090;2023-06-10T03:09:32;99893.28;;;17.56;100.00
37764;BME280;23602;51.084;7.090;2023-06-10T03:11:57;99896.00;;;17.56;100.00
37764;BME280;23602;51.084;7.090;2023-06-10T03:14:25;99893.22;;;17.51;100.00
37764;BME280;23602;51.084;7.090;2023-06-10T03:16:50;99898.66;;;17.51;100.00
37764;BME280;23602;51.084;7.090;2023-06-10T03:19:18;99898.19;;;17.54;100.00
37764;BME280;23602;51.084;7.090;2023-06-10T03:21:44;99898.97;;;17.54;100.00
37764;BME280;23602;51.084;7.090;2023-06-10T03:24:09;99903.84;;;17.52;100.00
37764;BME280;23602;51.084;7.090;2023-06-10T03:26:35;99905.16;;;17.50;100.00
37764;BME280;23602;51.084;7.090;2023-06-10T03:29:01;99909.50;;;17.46;100.00
37764;BME280;23602;51.084;7.090;2023-06-10T03:31:26;99905.13;;;17.45;100.00
37764;BME280;23602;51.084;7.090;2023-06-10T03:33:51;99906.78;;;17.46;100.00
37764;BME280;23602;51.084;7.090;2023-06-10T03:36:17;99912.19;;;17.46;100.00
37764;BME280;23602;51.084;7.090;2023-06-10T03:38:43;99912.16;;;17.41;100.00
37764;BME280;23602;51.084;7.090;2023-06-10T03:41:08;99910.50;;;17.40;100.00
37764;BME280;23602;51.084;7.090;2023-06-10T03:43:33;99918.06;;;17.33;100.00
37764;BME280;23602;51.084;7.090;2023-06-10T03:45:59;99912.63;;;17.33;100.00
37764;BME280;23602;51.084;7.090;2023-06-10T03:48:24;99911.56;;;17.34;100.00
37764;BME280;23602;51.084;7.090;2023-06-10T03:50:49;99909.97;;;17.38;100.00
37764;BME280;23602;51.084;7.090;2023-06-10T03:53:18;99918.38;;;17.36;100.00
37764;BME280;23602;51.084;7.090;2023-06-10T03:55:43;99907.50;;;17.36;100.00
37764;BME280;23602;51.084;7.090;2023-06-10T03:58:09;99914.28;;;17.34;100.00
37764;BME280;23602;51.084;7.090;2023-06-10T04:00:38;99912.88;;;17.26;100.00
37764;BME280;23602;51.084;7.090;2023-06-10T04:03:07;99907.72;;;17.30;100.00
37764;BME280;23602;51.084;7.090;2023-06-10T04:05:34;99916.97;;;17.29;100.00
37764;BME280;23602;51.084;7.090;2023-06-10T04:07:59;99914.75;;;17.26;100.00
37764;BME280;23602;51.084;7.090;2023-06-10T04:10:26;99918.84;;;17.28;100.00
37764;BME280;23602;51.084;7.090;2023-06-10T04:12:51;99919.72;;;17.34;100.00
37764;BME280;23602;51.084;7.090;2023-06-10T04:15:17;99922.44;;;17.34;100.00
37764;BME280;23602;51.084;7.090;2023-06-10T04:17:42;99925.66;;;17.31;100.00
37764;BME280;23602;51.084;7.090;2023-06-10T04:20:08;99922.38;;;17.29;100.00
37764;BME280;23602;51.084;7.090;2023-06-10T04:22:34;99923.78;;;17.31;100.00
37764;BME280;23602;51.084;7.090;2023-06-10T04:25:01;99921.81;;;17.27;100.00
37764;BME280;23602;51.084;7.090;2023-06-10T04:27:26;99925.09;;;17.29;100.00
37764;BME280;23602;51.084;7.090;2023-06-10T04:29:52;99934.63;;;17.31;100.00
37764;BME280;23602;51.084;7.090;2023-06-10T04:32:17;99922.38;;;17.29;100.00
37764;BME280;23602;51.084;7.090;2023-06-10T04:34:43;99936.53;;;17.31;100.00
37764;BME280;23602;51.084;7.090;2023-06-10T04:37:08;99939.47;;;17.29;100.00
37764;BME280;23602;51.084;7.090;2023-06-10T04:39:33;99933.53;;;17.32;100.00
37764;BME280;23602;51.084;7.090;2023-06-10T04:41:59;99941.41;;;17.29;100.00
37764;BME280;23602;51.084;7.090;2023-06-10T04:44:24;99938.41;;;17.30;100.00
37764;BME280;23602;51.084;7.090;2023-06-10T04:46:50;99938.16;;;17.32;100.00
37764;BME280;23602;51.084;7.090;2023-06-10T04:49:15;99943.56;;;17.32;100.00
37764;BME280;23602;51.084;7.090;2023-06-10T04:51:40;99939.53;;;17.34;100.00
37764;BME280;23602;51.084;7.090;2023-06-10T04:54:06;99943.91;;;17.35;100.00
37764;BME280;23602;51.084;7.090;2023-06-10T04:56:31;99947.16;;;17.37;100.00
37764;BME280;23602;51.084;7.090;2023-06-10T04:58:57;99942.50;;;17.33;100.00
37764;BME280;23602;51.084;7.090;2023-06-10T05:01:22;99948.00;;;17.38;100.00
37764;BME280;23602;51.084;7.090;2023-06-10T05:03:48;99950.97;;;17.36;100.00
37764;BME280;23602;51.084;7.090;2023-06-10T05:06:13;99945.59;;;17.41;100.00
37764;BME280;23602;51.084;7.090;2023-06-10T05:08:39;99943.16;;;17.45;100.00
37764;BME280;23602;51.084;7.090;2023-06-10T05:11:04;99937.72;;;17.45;100.00
37764;BME280;23602;51.084;7.090;2023-06-10T05:13:29;99950.25;;;17.46;100.00
37764;BME280;23602;51.084;7.090;2023-06-10T05:15:54;99944.81;;;17.46;100.00
37764;BME280;23602;51.084;7.090;2023-06-10T05:18:20;99944.53;;;17.47;100.00
37764;BME280;23602;51.084;7.090;2023-06-10T05:20:46;99947.31;;;17.52;100.00
37764;BME280;23602;51.084;7.090;2023-06-10T05:23:11;99947.56;;;17.51;100.00
37764;BME280;23602;51.084;7.090;2023-06-10T05:25:37;99945.44;;;17.53;100.00
37764;BME280;23602;51.084;7.090;2023-06-10T05:28:02;99950.34;;;17.56;100.00
37764;BME280;23602;51.084;7.090;2023-06-10T05:30:27;99948.47;;;17.56;100.00
37764;BME280;23602;51.084;7.090;2023-06-10T05:32:53;99947.13;;;17.59;100.00
37764;BME280;23602;51.084;7.090;2023-06-10T05:35:18;99952.28;;;17.60;100.00
37764;BME280;23602;51.084;7.090;2023-06-10T05:37:44;99960.75;;;17.64;100.00
37764;BME280;23602;51.084;7.090;2023-06-10T05:40:10;99952.59;;;17.64;100.00
37764;BME280;23602;51.084;7.090;2023-06-10T05:42:35;99956.97;;;17.70;100.00
37764;BME280;23602;51.084;7.090;2023-06-10T05:45:01;99957.28;;;17.74;100.00
37764;BME280;23602;51.084;7.090;2023-06-10T05:47:27;99951.03;;;17.73;100.00
37764;BME280;23602;51.084;7.090;2023-06-10T05:49:52;99958.13;;;17.79;100.00
37764;BME280;23602;51.084;7.090;2023-06-10T05:52:18;99959.78;;;17.85;100.00
37764;BME280;23602;51.084;7.090;2023-06-10T05:54:43;99959.28;;;17.88;100.00
37764;BME280;23602;51.084;7.090;2023-06-10T05:57:08;99961.47;;;17.91;100.00
37764;BME280;23602;51.084;7.090;2023-06-10T05:59:35;99958.25;;;17.94;100.00
37764;BME280;23602;51.084;7.090;2023-06-10T06:02:00;99964.25;;;18.01;100.00
37764;BME280;23602;51.084;7.090;2023-06-10T06:04:25;99962.91;;;18.04;100.00
37764;BME280;23602;51.084;7.090;2023-06-10T06:06:51;99964.03;;;18.08;100.00
37764;BME280;23602;51.084;7.090;2023-06-10T06:09:16;99964.34;;;18.16;100.00
37764;BME280;23602;51.084;7.090;2023-06-10T06:11:42;99968.19;;;18.20;100.00
37764;BME280;23602;51.084;7.090;2023-06-10T06:14:09;99963.84;;;18.24;100.00
37764;BME280;23602;51.084;7.090;2023-06-10T06:16:34;99957.34;;;18.30;100.00
37764;BME280;23602;51.084;7.090;2023-06-10T06:19:00;99960.66;;;18.38;100.00
37764;BME280;23602;51.084;7.090;2023-06-10T06:21:26;99966.13;;;18.43;100.00
37764;BME280;23602;51.084;7.090;2023-06-10T06:23:52;99969.72;;;18.48;100.00
37764;BME280;23602;51.084;7.090;2023-06-10T06:26:17;99972.19;;;18.55;100.00
37764;BME280;23602;51.084;7.090;2023-06-10T06:28:45;99969.22;;;18.61;100.00
37764;BME280;23602;51.084;7.090;2023-06-10T06:31:10;99967.34;;;18.67;100.00
37764;BME280;23602;51.084;7.090;2023-06-10T06:33:35;99968.72;;;18.74;100.00
37764;BME280;23602;51.084;7.090;2023-06-10T06:36:01;99963.84;;;18.81;100.00
37764;BME280;23602;51.084;7.090;2023-06-10T06:38:27;99968.53;;;18.91;100.00
37764;BME280;23602;51.084;7.090;2023-06-10T06:40:53;99963.63;;;18.98;100.00
37764;BME280;23602;51.084;7.090;2023-06-10T06:43:19;99971.28;;;19.06;100.00
37764;BME280;23602;51.084;7.090;2023-06-10T06:45:45;99971.84;;;19.13;100.00
37764;BME280;23602;51.084;7.090;2023-06-10T06:48:11;99975.41;;;19.24;100.00
37764;BME280;23602;51.084;7.090;2023-06-10T06:50:37;99972.19;;;19.47;100.00
37764;BME280;23602;51.084;7.090;2023-06-10T06:53:02;99978.19;;;19.59;100.00
37764;BME280;23602;51.084;7.090;2023-06-10T06:55:27;99977.91;;;19.61;100.00
37764;BME280;23602;51.084;7.090;2023-06-10T06:57:53;99981.19;;;19.73;100.00
37764;BME280;23602;51.084;7.090;2023-06-10T07:00:18;99983.63;;;19.84;100.00
37764;BME280;23602;51.084;7.090;2023-06-10T07:02:44;99983.31;;;20.01;100.00
37764;BME280;23602;51.084;7.090;2023-06-10T07:05:09;99984.41;;;20.20;100.00
37764;BME280;23602;51.084;7.090;2023-06-10T07:07:35;99984.94;;;20.32;100.00
37764;BME280;23602;51.084;7.090;2023-06-10T07:10:00;99983.25;;;20.51;100.00
37764;BME280;23602;51.084;7.090;2023-06-10T07:12:25;99970.31;;;20.77;100.00
37764;BME280;23602;51.084;7.090;2023-06-10T07:14:51;99966.34;;;20.98;100.00
37764;BME280;23602;51.084;7.090;2023-06-10T07:17:17;99971.97;;;21.27;100.00
37764;BME280;23602;51.084;7.090;2023-06-10T07:19:43;99968.25;;;21.47;100.00
37764;BME280;23602;51.084;7.090;2023-06-10T07:22:08;99977.06;;;21.72;100.00
37764;BME280;23602;51.084;7.090;2023-06-10T07:24:34;99975.53;;;21.95;100.00
37764;BME280;23602;51.084;7.090;2023-06-10T07:26:59;99969.22;;;22.23;100.00
37764;BME280;23602;51.084;7.090;2023-06-10T07:29:25;99972.50;;;22.49;100.00
37764;BME280;23602;51.084;7.090;2023-06-10T07:31:50;99967.97;;;22.63;100.00
37764;BME280;23602;51.084;7.090;2023-06-10T07:34:16;99970.22;;;22.80;100.00
37764;BME280;23602;51.084;7.090;2023-06-10T07:36:41;99966.22;;;22.91;100.00
37764;BME280;23602;51.084;7.090;2023-06-10T07:39:07;99959.06;;;23.13;100.00
37764;BME280;23602;51.084;7.090;2023-06-10T07:41:32;99964.47;;;23.18;100.00
37764;BME280;23602;51.084;7.090;2023-06-10T07:43:58;99975.88;;;23.25;100.00
37764;BME280;23602;51.084;7.090;2023-06-10T07:46:23;99967.22;;;23.37;100.00
37764;BME280;23602;51.084;7.090;2023-06-10T07:48:49;99969.06;;;23.60;100.00
37764;BME280;23602;51.084;7.090;2023-06-10T07:51:15;99963.06;;;23.58;99.46
37764;BME280;23602;51.084;7.090;2023-06-10T07:53:40;99963.09;;;23.72;91.96
37764;BME280;23602;51.084;7.090;2023-06-10T07:56:06;99963.84;;;23.91;84.00
37764;BME280;23602;51.084;7.090;2023-06-10T07:58:31;99966.16;;;24.16;100.00
37764;BME280;23602;51.084;7.090;2023-06-10T08:00:59;99966.69;;;24.32;100.00
37764;BME280;23602;51.084;7.090;2023-06-10T08:03:24;99965.69;;;24.41;100.00
37764;BME280;23602;51.084;7.090;2023-06-10T08:05:49;99963.94;;;24.59;100.00
37764;BME280;23602;51.084;7.090;2023-06-10T08:08:15;99963.63;;;24.74;100.00
37764;BME280;23602;51.084;7.090;2023-06-10T08:10:40;99963.75;;;24.83;100.00
37764;BME280;23602;51.084;7.090;2023-06-10T08:13:07;99962.72;;;24.92;100.00
37764;BME280;23602;51.084;7.090;2023-06-10T08:15:32;99961.88;;;25.05;100.00
37764;BME280;23602;51.084;7.090;2023-06-10T08:17:58;99961.75;;;25.10;100.00
37764;BME280;23602;51.084;7.090;2023-06-10T08:20:23;99962.63;;;25.20;100.00
37764;BME280;23602;51.084;7.090;2023-06-10T08:22:48;99961.19;;;25.22;100.00
37764;BME280;23602;51.084;7.090;2023-06-10T08:25:14;99965.59;;;25.23;100.00
37764;BME280;23602;51.084;7.090;2023-06-10T08:27:40;99955.31;;;25.15;100.00
37764;BME280;23602;51.084;7.090;2023-06-10T08:30:05;99969.88;;;25.29;100.00
37764;BME280;23602;51.084;7.090;2023-06-10T08:32:31;99966.25;;;25.42;100.00
37764;BME280;23602;51.084;7.090;2023-06-10T08:34:56;99964.47;;;25.60;100.00
37764;BME280;23602;51.084;7.090;2023-06-10T08:37:21;99960.81;;;25.73;100.00
37764;BME280;23602;51.084;7.090;2023-06-10T08:39:47;99959.00;;;25.91;100.00
37764;BME280;23602;51.084;7.090;2023-06-10T08:44:44;99960.22;;;26.07;100.00
37764;BME280;23602;51.084;7.090;2023-06-10T08:47:14;99963.22;;;26.19;100.00
37764;BME280;23602;51.084;7.090;2023-06-10T08:49:41;99963.25;;;26.27;82.64
37764;BME280;23602;51.084;7.090;2023-06-10T08:52:07;99959.13;;;26.47;79.90
37764;BME280;23602;51.084;7.090;2023-06-10T08:54:37;99961.72;;;26.52;88.18
37764;BME280;23602;51.084;7.090;2023-06-10T08:57:04;99954.28;;;26.53;88.25
37764;BME280;23602;51.084;7.090;2023-06-10T08:59:30;99956.94;;;26.75;92.13
37764;BME280;23602;51.084;7.090;2023-06-10T09:01:56;99954.72;;;26.85;76.30
37764;BME280;23602;51.084;7.090;2023-06-10T09:04:21;99949.88;;;26.91;73.54
37764;BME280;23602;51.084;7.090;2023-06-10T09:06:48;99945.97;;;27.01;76.99
37764;BME280;23602;51.084;7.090;2023-06-10T09:09:14;99946.13;;;26.95;80.25
37764;BME280;23602;51.084;7.090;2023-06-10T09:11:43;99951.34;;;27.14;85.99
37764;BME280;23602;51.084;7.090;2023-06-10T09:14:08;99943.22;;;27.26;85.29
37764;BME280;23602;51.084;7.090;2023-06-10T09:16:34;99942.44;;;27.34;82.92
37764;BME280;23602;51.084;7.090;2023-06-10T09:18:59;99950.38;;;27.62;100.00
37764;BME280;23602;51.084;7.090;2023-06-10T09:21:25;99948.56;;;27.74;97.74
37764;BME280;23602;51.084;7.090;2023-06-10T09:23:50;99939.34;;;27.62;67.12
37764;BME280;23602;51.084;7.090;2023-06-10T09:26:16;99941.16;;;27.66;68.03
37764;BME280;23602;51.084;7.090;2023-06-10T09:28:44;99944.84;;;27.70;73.60
37764;BME280;23602;51.084;7.090;2023-06-10T09:31:12;99949.22;;;27.80;91.68
37764;BME280;23602;51.084;7.090;2023-06-10T09:33:39;99939.81;;;27.81;63.67
37764;BME280;23602;51.084;7.090;2023-06-10T09:36:04;99939.75;;;27.89;67.72
37764;BME280;23602;51.084;7.090;2023-06-10T09:38:31;99938.50;;;27.78;56.05
37764;BME280;23602;51.084;7.090;2023-06-10T09:40:56;99934.28;;;27.81;56.10
37764;BME280;23602;51.084;7.090;2023-06-10T09:43:22;99940.34;;;28.20;64.12
37764;BME280;23602;51.084;7.090;2023-06-10T09:45:48;99939.59;;;28.41;54.44
37764;BME280;23602;51.084;7.090;2023-06-10T09:48:13;99935.72;;;28.71;49.08
37764;BME280;23602;51.084;7.090;2023-06-10T09:50:42;99944.59;;;28.85;57.92
37764;BME280;23602;51.084;7.090;2023-06-10T09:53:08;99943.28;;;28.53;46.30
37764;BME280;23602;51.084;7.090;2023-06-10T09:55:36;99940.47;;;28.33;47.22
37764;BME280;23602;51.084;7.090;2023-06-10T09:58:02;99934.38;;;28.48;49.07
37764;BME280;23602;51.084;7.090;2023-06-10T10:00:28;99929.84;;;28.43;49.10
37764;BME280;23602;51.084;7.090;2023-06-10T10:02:54;99938.03;;;28.69;60.56
37764;BME280;23602;51.084;7.090;2023-06-10T10:05:21;99939.91;;;28.86;62.50
37764;BME280;23602;51.084;7.090;2023-06-10T10:08:07;99932.31;;;28.95;44.84
37764;BME280;23602;51.084;7.090;2023-06-10T10:10:43;99936.63;;;28.83;45.97
37764;BME280;23602;51.084;7.090;2023-06-10T10:13:23;99929.16;;;29.05;44.42
37764;BME280;23602;51.084;7.090;2023-06-10T10:15:51;99936.72;;;29.16;42.24
37764;BME280;23602;51.084;7.090;2023-06-10T10:18:17;99928.50;;;29.08;43.53
37764;BME280;23602;51.084;7.090;2023-06-10T10:20:50;99934.75;;;28.96;43.69
37764;BME280;23602;51.084;7.090;2023-06-10T10:23:24;99930.19;;;28.71;41.20
37764;BME280;23602;51.084;7.090;2023-06-10T10:26:04;99929.25;;;28.67;41.13
37764;BME280;23602;51.084;7.090;2023-06-10T10:28:48;99925.56;;;28.83;44.69
37764;BME280;23602;51.084;7.090;2023-06-10T10:31:17;99925.13;;;29.02;46.36
37764;BME280;23602;51.084;7.090;2023-06-10T10:33:46;99930.66;;;29.02;41.35
37764;BME280;23602;51.084;7.090;2023-06-10T10:36:14;99926.53;;;29.08;41.27
37764;BME280;23602;51.084;7.090;2023-06-10T10:38:43;99919.84;;;29.09;42.84
37764;BME280;23602;51.084;7.090;2023-06-10T10:41:13;99921.59;;;29.14;40.94
37764;BME280;23602;51.084;7.090;2023-06-10T10:43:42;99920.47;;;29.35;44.87
37764;BME280;23602;51.084;7.090;2023-06-10T10:46:24;99906.38;;;29.28;41.16
37764;BME280;23602;51.084;7.090;2023-06-10T10:48:53;99915.34;;;29.25;42.79
37764;BME280;23602;51.084;7.090;2023-06-10T10:51:22;99916.75;;;29.11;43.93
37764;BME280;23602;51.084;7.090;2023-06-10T10:56:32;99928.44;;;28.58;47.75
37764;BME280;23602;51.084;7.090;2023-06-10T10:59:06;99925.84;;;28.32;44.93
37764;BME280;23602;51.084;7.090;2023-06-10T11:01:42;99923.97;;;28.15;42.48
37764;BME280;23602;51.084;7.090;2023-06-10T11:04:11;99934.25;;;27.89;41.94
37764;BME280;23602;51.084;7.090;2023-06-10T11:06:37;99929.13;;;27.62;48.33
37764;BME280;23602;51.084;7.090;2023-06-10T11:09:24;99929.59;;;27.38;50.50
37764;BME280;23602;51.084;7.090;2023-06-10T11:11:51;99926.22;;;27.33;47.78
37764;BME280;23602;51.084;7.090;2023-06-10T11:14:26;99925.38;;;27.32;54.60
37764;BME280;23602;51.084;7.090;2023-06-10T11:16:58;99927.81;;;27.34;64.16
37764;BME280;23602;51.084;7.090;2023-06-10T11:19:36;99919.56;;;27.25;68.43
37764;BME280;23602;51.084;7.090;2023-06-10T11:22:05;99916.44;;;27.18;78.26
37764;BME280;23602;51.084;7.090;2023-06-10T11:24:31;99919.06;;;27.15;75.56
37764;BME280;23602;51.084;7.090;2023-06-10T11:27:17;99922.78;;;26.93;65.01
37764;BME280;23602;51.084;7.090;2023-06-10T11:29:55;99911.75;;;27.02;83.46
37764;BME280;23602;51.084;7.090;2023-06-10T11:32:21;99919.06;;;26.98;58.33
37764;BME280;23602;51.084;7.090;2023-06-10T11:34:52;99918.88;;;27.11;55.70
37764;BME280;23602;51.084;7.090;2023-06-10T11:37:18;99925.38;;;27.32;67.48
37764;BME280;23602;51.084;7.090;2023-06-10T11:39:43;99916.78;;;27.25;61.90
37764;BME280;23602;51.084;7.090;2023-06-10T11:42:09;99917.28;;;27.44;62.23
37764;BME280;23602;51.084;7.090;2023-06-10T11:44:35;99917.75;;;27.55;51.18
37764;BME280;23602;51.084;7.090;2023-06-10T11:47:02;99919.19;;;27.70;54.89
37764;BME280;23602;51.084;7.090;2023-06-10T11:49:28;99914.84;;;27.60;61.63
37764;BME280;23602;51.084;7.090;2023-06-10T11:51:53;99906.72;;;27.46;57.60
37764;BME280;23602;51.084;7.090;2023-06-10T11:54:19;99910.13;;;27.43;56.85
37764;BME280;23602;51.084;7.090;2023-06-10T11:56:45;99914.13;;;27.80;50.29
37764;BME280;23602;51.084;7.090;2023-06-10T11:59:11;99911.00;;;27.90;47.43
37764;BME280;23602;51.084;7.090;2023-06-10T12:01:37;99906.84;;;27.76;46.24
37764;BME280;23602;51.084;7.090;2023-06-10T12:04:06;99917.06;;;27.67;48.22
37764;BME280;23602;51.084;7.090;2023-06-10T12:09:04;99903.34;;;27.15;58.85
37764;BME280;23602;51.084;7.090;2023-06-10T12:11:30;99909.97;;;26.97;59.80
37764;BME280;23602;51.084;7.090;2023-06-10T12:13:55;99909.63;;;26.90;63.86
37764;BME280;23602;51.084;7.090;2023-06-10T12:16:21;99901.50;;;26.76;54.82
37764;BME280;23602;51.084;7.090;2023-06-10T12:18:46;99900.19;;;26.74;66.94
37764;BME280;23602;51.084;7.090;2023-06-10T12:21:18;99900.00;;;26.70;79.51
37764;BME280;23602;51.084;7.090;2023-06-10T12:26:35;99897.84;;;26.50;93.53
37764;BME280;23602;51.084;7.090;2023-06-10T12:29:01;99892.00;;;26.43;99.23
37764;BME280;23602;51.084;7.090;2023-06-10T12:31:26;99897.97;;;26.36;100.00
37764;BME280;23602;51.084;7.090;2023-06-10T12:34:07;99901.09;;;26.44;100.00
37764;BME280;23602;51.084;7.090;2023-06-10T12:36:33;99891.31;;;26.77;100.00
37764;BME280;23602;51.084;7.090;2023-06-10T12:39:02;99877.19;;;27.13;97.42
37764;BME280;23602;51.084;7.090;2023-06-10T12:41:28;99880.41;;;27.57;59.77
37764;BME280;23602;51.084;7.090;2023-06-10T12:43:53;99878.53;;;27.87;64.80
37764;BME280;23602;51.084;7.090;2023-06-10T12:46:19;99876.03;;;28.11;74.90
37764;BME280;23602;51.084;7.090;2023-06-10T12:48:50;99867.81;;;28.53;51.55
37764;BME280;23602;51.084;7.090;2023-06-10T12:51:17;99866.28;;;28.72;57.50
37764;BME280;23602;51.084;7.090;2023-06-10T12:53:45;99866.34;;;28.85;49.14
37764;BME280;23602;51.084;7.090;2023-06-10T12:56:11;99862.19;;;29.11;52.48
37764;BME280;23602;51.084;7.090;2023-06-10T12:58:37;99862.16;;;29.20;48.25
37764;BME280;23602;51.084;7.090;2023-06-10T13:01:02;99865.31;;;29.30;50.10
37764;BME280;23602;51.084;7.090;2023-06-10T13:03:29;99856.16;;;29.51;53.25